Time;durP1;ratioP1;P1;durP2;ratioP2;P2;SDS_P1;SDS_P2;PMS_P1;PMS_P2;Temp;Humidity;BMP_temperature;BMP_pressure;BME280_temperature;BME280_humidity;BME280_pressure;Samples;Min_cycle;Max_cycle;Signal;HPM_P1;HPM_P2
2021/03/22 00:00:31;;;;;;;14.00;3.03;;;;;;;3.61;76.99;100889.06;5030250;28;20209;-78
2021/03/22 00:02:57;;;;;;;11.93;3.37;;;;;;;3.69;76.68;100884.03;5023875;28;20253;-78
2021/03/22 00:05:24;;;;;;;10.27;3.13;;;;;;;3.70;76.62;100881.44;5029548;28;20205;-77
2021/03/22 00:07:51;;;;;;;13.67;3.87;;;;;;;3.70;77.17;100890.91;5025231;28;20226;-77
2021/03/22 00:10:19;;;;;;;12.57;4.23;;;;;;;3.64;77.50;100895.97;5028903;28;20243;-78
2021/03/22 00:12:45;;;;;;;10.77;2.87;;;;;;;3.60;77.71;100894.19;5025552;28;20233;-77
2021/03/22 00:15:12;;;;;;;9.60;3.60;;;;;;;3.65;77.49;100898.59;5027919;28;20202;-78
2021/03/22 00:17:38;;;;;;;15.10;3.33;;;;;;;3.62;78.09;100889.91;5039108;28;20529;-75
2021/03/22 00:20:06;;;;;;;15.73;4.90;;;;;;;3.66;77.55;100891.69;5038033;28;20206;-77
2021/03/22 00:22:33;;;;;;;11.17;3.00;;;;;;;3.55;77.66;100892.41;5039477;28;20202;-76
2021/03/22 00:24:59;;;;;;;19.60;3.70;;;;;;;3.47;78.73;100896.56;5045926;28;20232;-77
2021/03/22 00:27:25;;;;;;;19.27;4.30;;;;;;;3.41;79.08;100893.88;5047729;28;20720;-77
2021/03/22 00:29:50;;;;;;;16.90;3.57;;;;;;;3.36;78.77;100893.78;5044299;28;20212;-78
2021/03/22 00:32:16;;;;;;;16.80;3.50;;;;;;;3.32;79.74;100904.88;5048329;28;20213;-78
2021/03/22 00:34:42;;;;;;;14.63;3.53;;;;;;;3.32;79.54;100891.97;5043367;28;20203;-77
2021/03/22 00:37:08;;;;;;;14.40;3.40;;;;;;;3.32;79.97;100904.03;5048784;28;20667;-77
2021/03/22 00:39:35;;;;;;;15.73;3.83;;;;;;;3.40;79.20;100901.59;5043597;28;20295;-78
2021/03/22 00:42:01;;;;;;;13.57;3.23;;;;;;;3.53;78.71;100906.13;5049265;28;20216;-78
2021/03/22 00:44:27;;;;;;;18.07;4.27;;;;;;;3.57;78.14;100897.59;5042908;28;20695;-77
2021/03/22 00:46:54;;;;;;;12.80;3.70;;;;;;;3.58;78.10;100897.59;5047720;28;20667;-76
2021/03/22 00:49:20;;;;;;;18.93;3.73;;;;;;;3.62;78.54;100907.97;5043315;28;20213;-77
2021/03/22 00:51:46;;;;;;;17.17;3.50;;;;;;;3.64;78.46;100903.72;5030047;28;20206;-77
2021/03/22 00:54:12;;;;;;;20.27;3.97;;;;;;;3.68;78.51;100900.34;5039320;28;20258;-78
2021/03/22 00:56:38;;;;;;;11.43;2.77;;;;;;;3.72;78.31;100895.25;5033505;28;20225;-77
2021/03/22 00:59:04;;;;;;;16.03;3.30;;;;;;;3.58;79.56;100887.28;5043152;28;20209;-77
2021/03/22 01:01:30;;;;;;;15.20;3.93;;;;;;;3.59;78.99;100890.75;5048466;28;20211;-77
2021/03/22 01:03:56;;;;;;;13.67;3.27;;;;;;;3.55;79.01;100896.69;5042513;28;20281;-78
2021/03/22 01:06:23;;;;;;;8.37;3.00;;;;;;;3.56;79.57;100890.69;5048142;28;20644;-78
2021/03/22 01:08:49;;;;;;;20.53;4.40;;;;;;;3.69;78.43;100892.63;5039467;28;20205;-79
2021/03/22 01:11:17;;;;;;;17.03;3.30;;;;;;;3.57;79.62;100895.00;5030873;28;20676;-77
2021/03/22 01:13:46;;;;;;;14.47;4.43;;;;;;;3.53;79.43;100895.81;5042268;28;20217;-76
2021/03/22 01:16:13;;;;;;;17.33;3.47;;;;;;;3.51;80.07;100900.94;5031148;28;20735;-78
2021/03/22 01:18:42;;;;;;;18.73;4.10;;;;;;;3.45;79.92;100897.34;5030374;28;20714;-78
2021/03/22 01:21:14;;;;;;;11.00;3.87;;;;;;;3.41;80.69;100887.81;5045544;28;20206;-77
2021/03/22 01:23:40;;;;;;;14.77;3.43;;;;;;;3.46;80.69;100887.06;5038696;28;20194;-78
2021/03/22 01:26:07;;;;;;;24.27;3.93;;;;;;;3.55;80.00;100882.06;5030572;28;20210;-77
2021/03/22 01:28:34;;;;;;;14.00;3.07;;;;;;;3.51;80.37;100882.00;5038699;28;20201;-78
2021/03/22 01:31:01;;;;;;;11.00;4.53;;;;;;;3.55;80.33;100879.50;5031018;28;20197;-78
2021/03/22 01:33:33;;;;;;;20.37;4.57;;;;;;;3.54;80.70;100874.28;5038026;28;20233;-78
2021/03/22 01:36:01;;;;;;;20.03;3.53;;;;;;;3.51;80.56;100872.53;5031463;28;20190;-76
2021/03/22 01:38:28;;;;;;;19.07;3.80;;;;;;;3.47;81.25;100877.59;5038136;28;20210;-78
2021/03/22 01:41:12;;;;;;;15.00;3.87;;;;;;;3.40;81.14;100880.94;5031099;28;20252;-77
2021/03/22 01:43:57;;;;;;;17.33;4.13;;;;;;;3.43;81.43;100887.03;5038915;28;20212;-76
2021/03/22 01:46:25;;;;;;;17.47;3.67;;;;;;;3.46;80.44;100875.88;5035912;28;20222;-77
2021/03/22 01:48:51;;;;;;;16.80;4.00;;;;;;;3.55;80.13;100878.63;5038920;28;20196;-76
2021/03/22 01:51:18;;;;;;;14.97;3.80;;;;;;;3.54;79.97;100876.88;5029928;28;20202;-76
2021/03/22 01:53:44;;;;;;;11.80;3.30;;;;;;;3.64;79.63;100873.59;5038650;28;20626;-78
2021/03/22 01:56:28;;;;;;;20.07;4.27;;;;;;;3.61;79.51;100868.41;5030475;28;20681;-77
2021/03/22 01:58:55;;;;;;;19.83;3.73;;;;;;;3.67;78.80;100868.50;5039326;28;20194;-75
2021/03/22 02:01:23;;;;;;;17.17;4.17;;;;;;;3.67;79.19;100868.50;5033391;28;20214;-77
2021/03/22 02:03:50;;;;;;;16.90;4.07;;;;;;;3.69;78.94;100873.69;5042556;28;20203;-77
2021/03/22 02:06:16;;;;;;;17.70;4.17;;;;;;;3.72;79.46;100868.56;5034175;28;20226;-79
2021/03/22 02:08:44;;;;;;;18.03;3.83;;;;;;;3.62;79.40;100875.28;5042616;28;20201;-77
2021/03/22 02:11:17;;;;;;;15.07;3.10;;;;;;;3.64;79.71;100872.75;5034322;28;20206;-77
2021/03/22 02:13:44;;;;;;;14.60;3.27;;;;;;;3.68;79.04;100871.94;5041765;28;20733;-78
2021/03/22 02:16:15;;;;;;;12.93;3.70;;;;;;;3.64;79.19;100870.16;5040512;28;20430;-77
2021/03/22 02:18:53;;;;;;;25.27;4.40;;;;;;;3.67;79.31;100858.19;5041902;28;20209;-77
2021/03/22 02:21:46;;;;;;;14.17;3.50;;;;;;;3.64;78.13;100871.00;5033552;28;20194;-77
2021/03/22 02:24:45;;;;;;;11.03;3.43;;;;;;;3.56;77.90;100878.63;5042108;28;20682;-77
2021/03/22 02:27:47;;;;;;;16.00;2.90;;;;;;;3.66;77.70;100878.78;5032254;28;20287;-77
2021/03/22 02:30:34;;;;;;;14.53;3.27;;;;;;;3.64;76.12;100881.34;5037208;28;20205;-78
2021/03/22 02:33:24;;;;;;;11.57;3.63;;;;;;;3.65;76.91;100888.25;5034017;28;20591;-77
2021/03/22 02:35:59;;;;;;;8.20;2.70;;;;;;;3.67;76.93;100878.81;5014290;28;20214;-77
2021/03/22 02:38:29;;;;;;;10.03;2.40;;;;;;;3.66;75.93;100877.06;5040654;28;20251;-77
2021/03/22 02:41:01;;;;;;;16.93;3.77;;;;;;;3.66;75.12;100871.91;5034023;28;20203;-78
2021/03/22 02:43:27;;;;;;;10.70;2.60;;;;;;;3.62;75.27;100877.00;5040849;28;20202;-77
2021/03/22 02:45:55;;;;;;;13.53;2.53;;;;;;;3.69;75.34;100879.72;5038238;28;20803;-77
2021/03/22 02:48:23;;;;;;;11.73;2.83;;;;;;;3.78;74.29;100871.25;5042959;28;20233;-77
2021/03/22 02:50:56;;;;;;;10.30;2.90;;;;;;;3.74;73.87;100882.38;5032719;28;20684;-77
2021/03/22 02:53:37;;;;;;;11.77;2.83;;;;;;;3.72;73.95;100879.75;5040476;28;20719;-78
2021/03/22 02:56:11;;;;;;;16.20;3.67;;;;;;;3.78;73.42;100874.69;5033605;28;20202;-77
2021/03/22 02:58:44;;;;;;;7.63;3.07;;;;;;;3.87;73.01;100871.38;5041535;28;20663;-77
2021/03/22 03:01:15;;;;;;;12.90;2.90;;;;;;;3.96;72.04;100870.66;5032945;28;20214;-78
2021/03/22 03:03:44;;;;;;;12.97;2.73;;;;;;;3.90;71.49;100870.56;5048132;28;20567;-76
2021/03/22 03:06:10;;;;;;;10.27;2.37;;;;;;;3.90;71.80;100876.59;5044904;28;20210;-76
2021/03/22 03:08:39;;;;;;;14.03;3.37;;;;;;;3.92;72.38;100877.47;5055483;28;20198;-76
2021/03/22 03:11:06;;;;;;;8.37;2.50;;;;;;;3.84;73.50;100884.25;5059896;28;20279;-75
2021/03/22 03:13:33;;;;;;;16.57;3.60;;;;;;;3.74;74.46;100884.94;5040712;28;20735;-77
2021/03/22 03:15:59;;;;;;;10.17;3.33;;;;;;;3.82;74.90;100885.94;5038990;28;20218;-76
2021/03/22 03:18:26;;;;;;;15.73;3.73;;;;;;;3.61;76.56;100889.06;5041040;28;20214;-77
2021/03/22 03:20:52;;;;;;;13.80;3.60;;;;;;;3.64;76.69;100888.22;5033568;28;20213;-78
2021/03/22 03:23:19;;;;;;;13.67;2.83;;;;;;;3.53;77.69;100899.25;5039905;28;20209;-77
2021/03/22 03:25:45;;;;;;;14.60;4.17;;;;;;;3.52;77.66;100900.06;5013816;28;20207;-77
2021/03/22 03:28:11;;;;;;;18.37;2.97;;;;;;;3.54;77.98;100894.94;5036222;28;20595;-78
2021/03/22 03:30:40;;;;;;;21.17;3.73;;;;;;;3.54;77.42;100895.81;5034181;28;20260;-76
2021/03/22 03:33:08;;;;;;;23.60;4.03;;;;;;;3.66;77.49;100902.03;5037582;28;20605;-78
2021/03/22 03:35:36;;;;;;;13.57;4.03;;;;;;;3.69;77.80;100899.50;5034673;28;20225;-77
2021/03/22 03:38:02;;;;;;;12.37;3.10;;;;;;;3.66;77.67;100900.31;5037627;28;20230;-77
2021/03/22 03:40:32;;;;;;;24.37;4.33;;;;;;;3.72;77.58;100900.41;5035197;28;20202;-78
2021/03/22 03:42:58;;;;;;;18.30;3.53;;;;;;;3.73;77.91;100897.00;5037227;28;20572;-77
2021/03/22 03:45:27;;;;;;;13.83;3.17;;;;;;;3.72;78.18;100899.53;5036074;28;20629;-78
2021/03/22 03:47:53;;;;;;;13.77;3.73;;;;;;;3.61;77.98;100898.50;5041578;28;20231;-77
2021/03/22 03:50:23;;;;;;;15.20;3.87;;;;;;;3.64;77.87;100894.25;5035822;28;20207;-77
2021/03/22 03:52:49;;;;;;;18.70;3.60;;;;;;;3.65;78.40;100915.75;5034855;28;20229;-75
2021/03/22 03:55:16;;;;;;;12.43;3.80;;;;;;;3.61;78.76;100916.56;5036649;28;20199;-79
2021/03/22 03:57:46;;;;;;;14.37;3.40;;;;;;;3.59;79.23;100913.97;5035633;28;20221;-76
2021/03/22 04:00:14;;;;;;;14.03;3.70;;;;;;;3.66;79.08;100909.78;5036947;28;20228;-78
2021/03/22 04:02:41;;;;;;;16.00;3.77;;;;;;;3.57;78.82;100919.09;5034195;28;20213;-78
2021/03/22 04:05:08;;;;;;;14.77;3.47;;;;;;;3.57;78.53;100918.25;5037528;28;20213;-77
2021/03/22 04:07:34;;;;;;;19.77;3.40;;;;;;;3.49;79.07;100917.22;5033709;28;20766;-77
2021/03/22 04:10:00;;;;;;;14.60;3.97;;;;;;;3.53;79.46;100914.72;5038224;28;20210;-78
2021/03/22 04:12:26;;;;;;;15.03;3.17;;;;;;;3.58;79.13;100914.81;5032548;28;20267;-77
2021/03/22 04:14:53;;;;;;;11.67;3.17;;;;;;;3.56;79.42;100922.50;5039001;28;20575;-77
2021/03/22 04:17:19;;;;;;;16.73;4.10;;;;;;;3.52;79.72;100925.03;5037199;28;20242;-76
2021/03/22 04:19:45;;;;;;;19.80;3.43;;;;;;;3.54;79.17;100925.91;5040021;28;20326;-77
2021/03/22 04:22:11;;;;;;;14.33;3.20;;;;;;;3.62;79.69;100926.06;5030922;28;20216;-78
2021/03/22 04:24:37;;;;;;;17.13;3.07;;;;;;;3.66;79.01;100933.00;5040023;28;20257;-79
2021/03/22 04:27:04;;;;;;;15.60;3.93;;;;;;;3.71;78.84;100926.22;5030826;28;20234;-77
2021/03/22 04:29:30;;;;;;;10.00;4.40;;;;;;;3.67;79.04;100925.28;5040087;28;20206;-76
2021/03/22 04:31:57;;;;;;;10.23;3.83;;;;;;;3.58;79.72;100926.00;5030932;28;20198;-78
2021/03/22 04:34:22;;;;;;;13.77;3.20;;;;;;;3.57;79.59;100916.53;5039498;28;20249;-77
2021/03/22 04:36:48;;;;;;;12.83;3.90;;;;;;;3.70;79.04;100920.16;5030816;28;20230;-77
2021/03/22 04:39:14;;;;;;;12.60;3.30;;;;;;;3.82;78.98;100913.47;5040376;28;20206;-78
2021/03/22 04:41:40;;;;;;;14.37;3.17;;;;;;;3.90;78.64;100915.31;5030934;28;20214;-77
2021/03/22 04:44:07;;;;;;;14.80;4.13;;;;;;;3.95;78.50;100908.53;5039517;28;20259;-77
2021/03/22 04:46:33;;;;;;;13.87;2.63;;;;;;;3.81;78.38;100916.91;5037373;28;20222;-77
2021/03/22 04:49:01;;;;;;;15.40;4.17;;;;;;;3.69;78.86;100915.00;5037071;28;20547;-77
2021/03/22 04:51:27;;;;;;;15.43;4.13;;;;;;;3.62;79.63;100929.50;5047333;28;21715;-77
2021/03/22 04:53:54;;;;;;;12.40;3.60;;;;;;;3.39;81.43;100931.69;5039464;28;20220;-77
2021/03/22 04:56:20;;;;;;;9.77;3.07;;;;;;;3.18;83.58;100935.59;5031024;28;20226;-78
2021/03/22 04:58:46;;;;;;;13.23;3.90;;;;;;;3.11;83.94;100931.16;5031956;28;20198;-77
2021/03/22 05:01:12;;;;;;;13.03;4.53;;;;;;;2.98;85.24;100932.63;5031143;28;20241;-76
2021/03/22 05:03:38;;;;;;;15.00;4.70;;;;;;;3.02;85.38;100933.56;5039388;28;20236;-76
2021/03/22 05:06:05;;;;;;;18.93;4.87;;;;;;;3.02;85.99;100946.44;5031821;28;20206;-77
2021/03/22 05:08:31;;;;;;;18.63;4.57;;;;;;;3.03;86.11;100937.84;5038774;28;20205;-77
2021/03/22 05:11:00;;;;;;;14.27;4.10;;;;;;;3.05;86.13;100932.72;5031690;28;20556;-76
2021/03/22 05:13:27;;;;;;;17.80;4.17;;;;;;;2.99;86.10;100936.06;5038069;28;20313;-78
2021/03/22 05:15:54;;;;;;;16.27;4.67;;;;;;;2.97;85.77;100941.22;5036328;28;20280;-78
2021/03/22 05:18:21;;;;;;;16.67;4.20;;;;;;;2.91;85.85;100945.34;5040962;28;20236;-77
2021/03/22 05:20:49;;;;;;;17.17;4.50;;;;;;;2.93;85.73;100948.84;5031381;28;20586;-77
2021/03/22 05:23:18;;;;;;;16.27;4.30;;;;;;;2.91;86.81;100950.50;5038023;28;20206;-75
2021/03/22 05:25:45;;;;;;;20.07;4.50;;;;;;;2.88;86.59;100951.31;5011746;28;20212;-77
2021/03/22 05:28:12;;;;;;;15.23;4.20;;;;;;;2.80;86.53;100952.88;5027490;28;20222;-77
2021/03/22 05:30:39;;;;;;;20.00;4.23;;;;;;;2.83;86.81;100962.38;5039320;28;20201;-76
2021/03/22 05:33:08;;;;;;;16.03;5.23;;;;;;;2.84;87.40;100961.56;5025365;28;20252;-78
2021/03/22 05:35:35;;;;;;;14.30;4.60;;;;;;;2.88;86.82;100956.47;5034188;28;20206;-75
2021/03/22 05:38:02;;;;;;;19.63;4.27;;;;;;;2.90;86.41;100956.53;5028614;28;20221;-78
2021/03/22 05:40:34;;;;;;;18.63;5.20;;;;;;;2.88;87.19;100956.47;5027620;28;20202;-77
2021/03/22 05:43:08;;;;;;;15.37;4.47;;;;;;;2.86;87.49;100958.16;5027161;28;20201;-78
2021/03/22 05:45:47;;;;;;;16.00;4.90;;;;;;;2.85;87.45;100964.13;5029469;28;20195;-77
2021/03/22 05:48:33;;;;;;;12.40;4.27;;;;;;;2.85;87.58;100963.28;5027675;28;20599;-78
2021/03/22 05:51:18;;;;;;;14.40;5.07;;;;;;;2.87;88.16;100957.31;5024463;28;20199;-77
2021/03/22 05:53:54;;;;;;;18.70;4.33;;;;;;;2.95;86.94;100958.34;5031803;28;20225;-78
2021/03/22 05:56:29;;;;;;;14.80;3.80;;;;;;;3.07;85.17;100951.69;5025887;28;20217;-77
2021/03/22 05:59:12;;;;;;;13.87;3.70;;;;;;;3.22;84.38;100961.44;5027293;28;20201;-76
2021/03/22 06:01:43;;;;;;;11.10;3.80;;;;;;;3.34;82.31;100956.53;5024651;28;20229;-77
2021/03/22 06:04:19;;;;;;;13.50;4.90;;;;;;;3.42;82.12;100956.66;5027506;28;20268;-77
2021/03/22 06:06:47;;;;;;;7.87;3.67;;;;;;;3.51;81.46;100957.72;5025874;28;20512;-78
2021/03/22 06:09:23;;;;;;;13.03;4.67;;;;;;;3.48;81.81;100955.06;5029701;28;20204;-76
2021/03/22 06:11:56;;;;;;;12.67;4.10;;;;;;;3.55;81.89;100962.09;5025278;28;20230;-77
2021/03/22 06:14:31;;;;;;;10.73;3.47;;;;;;;3.53;81.74;100968.06;5028855;28;20226;-77
2021/03/22 06:17:02;;;;;;;14.07;3.83;;;;;;;3.56;81.45;100968.09;5025833;28;20228;-77
2021/03/22 06:19:29;;;;;;;8.73;3.33;;;;;;;3.62;81.24;100975.97;5031915;28;20222;-76
2021/03/22 06:21:55;;;;;;;19.53;4.13;;;;;;;3.58;81.05;100972.44;5027325;28;20205;-77
2021/03/22 06:24:23;;;;;;;12.10;3.80;;;;;;;3.60;79.27;100977.66;5028047;28;20194;-74
2021/03/22 06:26:52;;;;;;;10.90;3.40;;;;;;;3.71;79.29;100972.69;5023019;28;20222;-77
2021/03/22 06:29:23;;;;;;;10.20;3.07;;;;;;;3.76;78.88;100971.03;5029105;28;20222;-76
2021/03/22 06:31:51;;;;;;;8.23;3.07;;;;;;;3.87;77.42;100977.28;5023823;28;20198;-78
2021/03/22 06:34:21;;;;;;;9.77;3.03;;;;;;;4.01;77.52;100976.66;5023868;28;20214;-77
2021/03/22 06:36:47;;;;;;;11.63;3.53;;;;;;;4.08;78.40;100978.47;5022812;28;20222;-77
2021/03/22 06:39:14;;;;;;;13.00;3.67;;;;;;;4.12;79.49;100972.50;5027952;28;20205;-74
2021/03/22 06:41:44;;;;;;;8.83;3.50;;;;;;;4.13;79.79;100985.44;5033394;28;20576;-76
2021/03/22 06:44:13;;;;;;;12.70;4.20;;;;;;;4.14;79.96;100986.31;5029971;28;20263;-76
2021/03/22 06:46:57;;;;;;;11.23;3.77;;;;;;;4.28;79.92;100995.16;5027361;28;20226;-76
2021/03/22 06:49:27;;;;;;;19.40;4.30;;;;;;;4.37;79.06;100986.69;5027081;28;20204;-77
2021/03/22 06:51:57;;;;;;;14.23;3.47;;;;;;;4.34;78.98;100972.00;5030628;28;20293;-77
2021/03/22 06:54:31;;;;;;;16.90;4.20;;;;;;;4.37;79.29;100984.09;5030768;28;20226;-78
2021/03/22 06:57:04;;;;;;;14.63;3.67;;;;;;;4.25;78.63;100987.34;5025291;28;20588;-76
2021/03/22 06:59:31;;;;;;;10.63;3.83;;;;;;;4.18;78.82;100988.09;5031214;28;20202;-76
2021/03/22 07:02:11;;;;;;;12.63;4.77;;;;;;;4.26;79.41;100993.38;5027277;28;20703;-77
2021/03/22 07:04:38;;;;;;;12.60;4.10;;;;;;;4.24;80.33;100993.38;5027417;28;20612;-77
2021/03/22 07:07:11;;;;;;;13.53;4.40;;;;;;;4.38;79.80;101002.22;5026499;28;20312;-76
2021/03/22 07:09:40;;;;;;;17.50;3.83;;;;;;;4.50;79.29;100998.94;5030320;28;20201;-76
2021/03/22 07:12:09;;;;;;;14.90;4.23;;;;;;;4.33;79.00;100995.22;5023961;28;20207;-77
2021/03/22 07:14:36;;;;;;;9.20;4.33;;;;;;;4.30;77.98;100995.16;5029528;28;20214;-76
2021/03/22 07:17:04;;;;;;;10.00;3.77;;;;;;;4.40;77.78;101007.41;5028843;28;20668;-78
2021/03/22 07:19:30;;;;;;;9.47;4.47;;;;;;;4.38;78.65;100999.63;5040393;28;20208;-76
2021/03/22 07:21:58;;;;;;;12.03;3.60;;;;;;;4.42;76.75;101015.16;5029859;28;20209;-77
2021/03/22 07:24:47;;;;;;;9.43;3.03;;;;;;;4.45;74.89;101013.50;5030212;28;20187;-77
2021/03/22 07:27:19;;;;;;;9.20;3.70;;;;;;;4.56;75.99;101014.56;5024426;28;20222;-74
2021/03/22 07:30:15;;;;;;;10.80;3.80;;;;;;;4.63;75.10;101018.09;5025299;28;20226;-77
2021/03/22 07:32:48;;;;;;;11.17;4.03;;;;;;;4.68;74.54;101021.63;5026722;28;20193;-75
2021/03/22 07:35:45;;;;;;;13.17;4.60;;;;;;;4.74;73.88;101023.44;5036403;28;20209;-76
2021/03/22 07:38:23;;;;;;;12.60;3.70;;;;;;;4.77;73.34;101024.31;5056449;28;20242;-76
2021/03/22 07:40:53;;;;;;;12.57;4.20;;;;;;;4.83;73.55;101036.47;5033531;28;20199;-77
2021/03/22 07:43:46;;;;;;;11.23;4.57;;;;;;;4.97;72.90;101026.31;5033856;28;20212;-76
2021/03/22 07:46:28;;;;;;;13.17;3.83;;;;;;;5.06;72.77;101033.34;5022896;28;20216;-76
2021/03/22 07:49:08;;;;;;;9.00;3.03;;;;;;;4.96;71.10;101033.22;5032339;28;20193;-77
2021/03/22 07:51:58;;;;;;;7.27;3.50;;;;;;;4.71;72.19;101044.91;5022971;28;20198;-81
2021/03/22 07:54:37;;;;;;;10.63;4.00;;;;;;;4.80;72.88;101038.13;5023297;28;20227;-77
2021/03/22 07:57:07;;;;;;;7.77;3.50;;;;;;;4.99;72.93;101032.38;5023841;28;20241;-76
2021/03/22 07:59:44;;;;;;;18.80;5.40;;;;;;;5.09;73.59;101034.22;5030507;28;20196;-77
2021/03/22 08:02:30;;;;;;;7.63;3.80;;;;;;;5.22;72.95;101037.88;5022643;28;20703;-75
2021/03/22 08:05:05;;;;;;;13.70;5.97;;;;;;;5.29;75.01;101033.63;5024710;28;20201;-76
2021/03/22 08:07:56;;;;;;;11.40;6.23;;;;;;;5.37;75.67;101039.75;5025805;28;20224;-77
2021/03/22 08:10:43;;;;;;;13.47;6.03;;;;;;;5.28;75.67;101037.94;5021410;28;20204;-78
2021/03/22 08:13:23;;;;;;;20.93;6.47;;;;;;;5.30;74.81;101037.97;5027008;28;20248;-74
2021/03/22 08:16:01;;;;;;;8.20;5.20;;;;;;;5.07;75.63;101035.94;5025934;28;20212;-74
2021/03/22 08:18:33;;;;;;;13.13;5.47;;;;;;;5.07;75.18;101040.25;5027716;28;20213;-74
2021/03/22 08:21:07;;;;;;;16.77;5.10;;;;;;;5.10;74.86;101042.88;5019930;28;20287;-77
2021/03/22 08:23:50;;;;;;;10.20;5.17;;;;;;;5.05;74.54;101053.16;5029368;28;20211;-77
2021/03/22 08:26:22;;;;;;;40.77;7.73;;;;;;;5.02;74.62;101052.28;5021819;28;20244;-76
2021/03/22 08:28:59;;;;;;;10.50;4.83;;;;;;;4.93;74.18;101051.25;5028219;28;20209;-78
2021/03/22 08:31:30;;;;;;;8.67;4.50;;;;;;;4.82;73.90;101054.56;5019877;28;20215;-77
2021/03/22 08:34:04;;;;;;;14.63;4.10;;;;;;;4.86;71.83;101054.63;5029670;28;20215;-74
2021/03/22 08:36:40;;;;;;;11.77;4.47;;;;;;;4.91;72.09;101055.53;5024334;28;20231;-77
2021/03/22 08:39:18;;;;;;;12.67;3.73;;;;;;;4.86;72.03;101056.34;5031045;28;20203;-77
2021/03/22 08:41:54;;;;;;;7.30;3.67;;;;;;;5.03;72.01;101059.16;5021711;28;20195;-78
2021/03/22 08:44:25;;;;;;;5.17;4.00;;;;;;;5.05;70.97;101058.34;5024292;28;20279;-77
2021/03/22 08:46:57;;;;;;;10.33;4.67;;;;;;;5.17;70.74;101062.81;5022677;28;20236;-76
2021/03/22 08:49:34;;;;;;;9.57;4.00;;;;;;;5.38;71.30;101067.41;4335561;28;10000791;-76
2021/03/22 08:52:02;;;;;;;13.70;5.37;;;;;;;5.55;71.57;101054.66;5022505;28;20603;-78
2021/03/22 08:54:31;;;;;;;11.67;5.93;;;;;;;5.74;72.37;101063.50;5027163;28;20223;-76
2021/03/22 08:57:08;;;;;;;17.60;5.13;;;;;;;5.87;71.47;101060.19;5017858;28;20258;-76
2021/03/22 08:59:37;;;;;;;8.77;4.47;;;;;;;6.01;71.62;101067.28;5027177;28;20269;-78
2021/03/22 09:02:25;;;;;;;10.07;4.83;;;;;;;5.74;72.50;101066.94;5018081;28;20717;-77
2021/03/22 09:04:53;;;;;;;14.23;5.60;;;;;;;5.72;72.29;101079.00;5022128;28;20219;-78
2021/03/22 09:07:31;;;;;;;8.33;4.93;;;;;;;5.73;70.64;101073.00;5020093;28;20603;-74
2021/03/22 09:10:27;;;;;;;9.00;4.43;;;;;;;5.63;70.52;101084.09;5022209;28;20292;-77
2021/03/22 09:13:04;;;;;;;6.80;3.67;;;;;;;5.53;70.69;101080.53;5020490;28;20682;-75
2021/03/22 09:15:38;;;;;;;8.57;3.13;;;;;;;5.59;69.07;101082.34;5028517;28;20201;-74
2021/03/22 09:18:19;;;;;;;11.20;3.77;;;;;;;5.60;68.80;101084.06;5030327;28;20249;-78
2021/03/22 09:21:20;;;;;;;8.90;2.93;;;;;;;5.46;66.97;101076.13;5008959;28;20239;-74
2021/03/22 09:23:49;;;;;;;9.27;3.23;;;;;;;5.49;68.31;101083.94;5035980;28;20190;-76
2021/03/22 09:26:16;;;;;;;9.93;4.57;;;;;;;5.64;68.08;101085.81;5028092;28;20205;-77
2021/03/22 09:29:13;;;;;;;6.00;3.70;;;;;;;5.56;67.09;101085.72;5036876;28;20291;-75
2021/03/22 09:31:46;;;;;;;9.27;3.67;;;;;;;5.62;67.71;101086.66;5027581;28;20208;-76
2021/03/22 09:34:36;;;;;;;6.00;3.70;;;;;;;5.80;67.59;101084.28;5035626;28;20219;-75
2021/03/22 09:37:35;;;;;;;6.93;3.20;;;;;;;5.95;65.48;101096.59;5027779;28;20227;-77
2021/03/22 09:40:03;;;;;;;7.77;4.00;;;;;;;5.95;66.00;101083.63;5042504;28;20207;-76
2021/03/22 09:42:29;;;;;;;9.60;3.60;;;;;;;6.27;67.11;101096.03;5037823;28;20215;-76
2021/03/22 09:45:20;;;;;;;9.50;3.53;;;;;;;6.20;66.01;101087.31;5034837;28;20208;-76
2021/03/22 09:48:19;;;;;;;5.57;3.90;;;;;;;6.30;65.52;101094.34;5024538;28;20233;-77
2021/03/22 09:50:46;;;;;;;7.77;4.00;;;;;;;6.48;65.95;101080.66;5009089;28;20210;-76
2021/03/22 09:53:18;;;;;;;6.40;3.13;;;;;;;6.43;64.04;101089.25;5031310;28;20211;-76
2021/03/22 09:56:02;;;;;;;9.50;3.03;;;;;;;6.28;63.58;101092.56;5008526;28;20233;-77
2021/03/22 09:58:34;;;;;;;7.00;3.10;;;;;;;6.14;64.76;101100.22;5018988;28;20221;-77
2021/03/22 10:01:03;;;;;;;4.80;3.30;;;;;;;6.12;64.73;101102.78;5018004;28;20661;-78
2021/03/22 10:03:36;;;;;;;13.70;3.00;;;;;;;6.20;64.49;101099.41;5024454;28;20667;-78
2021/03/22 10:06:06;;;;;;;13.53;3.40;;;;;;;6.32;63.69;101099.50;5017773;28;20206;-77
2021/03/22 10:08:34;;;;;;;12.13;3.83;;;;;;;6.45;63.52;101100.50;5024452;28;20212;-76
2021/03/22 10:11:04;;;;;;;6.60;3.90;;;;;;;6.62;63.83;101093.75;5018674;28;20205;-76
2021/03/22 10:13:32;;;;;;;6.13;3.10;;;;;;;6.74;63.39;101086.03;5021926;28;20232;-78
2021/03/22 10:16:07;;;;;;;7.67;3.63;;;;;;;6.87;61.23;101086.13;5021454;28;20209;-77
2021/03/22 10:18:38;;;;;;;5.47;2.80;;;;;;;6.67;60.26;101094.63;5024337;28;20593;-76
2021/03/22 10:21:12;;;;;;;5.67;2.97;;;;;;;6.82;61.25;101091.28;5019296;28;20711;-77
2021/03/22 10:23:51;;;;;;;4.90;3.00;;;;;;;6.97;61.40;101087.91;5025662;28;20699;-76
2021/03/22 10:26:24;;;;;;;9.07;2.80;;;;;;;7.09;60.32;101082.78;5021094;28;20209;-77
2021/03/22 10:28:50;;;;;;;6.37;3.97;;;;;;;6.74;59.26;101088.63;5022933;28;20198;-76
2021/03/22 10:31:21;;;;;;;5.77;3.20;;;;;;;6.70;60.92;101094.66;5020492;28;20209;-75
2021/03/22 10:33:49;;;;;;;5.63;3.10;;;;;;;6.82;61.64;101090.41;5022881;28;20229;-77
2021/03/22 10:36:25;;;;;;;6.67;3.30;;;;;;;7.02;60.74;101088.81;5022700;28;20203;-78
2021/03/22 10:38:54;;;;;;;4.90;2.90;;;;;;;7.23;59.38;101080.28;5028359;28;20198;-77
2021/03/22 10:41:27;;;;;;;5.60;3.43;;;;;;;7.35;59.35;101088.16;5020607;28;20205;-77
2021/03/22 10:43:56;;;;;;;4.30;2.70;;;;;;;7.37;56.91;101095.91;5027494;28;20204;-77
2021/03/22 10:46:24;;;;;;;6.07;2.57;;;;;;;7.58;58.61;101096.91;5024026;28;20272;-77
2021/03/22 10:49:00;;;;;;;6.77;3.33;;;;;;;7.82;58.18;101091.78;5029779;28;20216;-78
2021/03/22 10:51:36;;;;;;;6.53;3.00;;;;;;;7.92;56.88;101092.66;5021665;28;20267;-76
2021/03/22 10:54:05;;;;;;;7.07;2.50;;;;;;;8.03;57.18;101092.72;5027289;28;20296;-78
2021/03/22 10:56:36;;;;;;;5.27;2.63;;;;;;;8.16;56.45;101089.25;5022099;28;20229;-78
2021/03/22 10:59:05;;;;;;;5.93;2.93;;;;;;;7.98;55.51;101094.41;5025823;28;20217;-77
2021/03/22 11:01:37;;;;;;;6.87;3.60;;;;;;;8.06;56.55;101095.28;5020210;28;20618;-78
2021/03/22 11:04:06;;;;;;;5.80;2.90;;;;;;;8.41;56.86;101082.38;5027575;28;20848;-78
2021/03/22 11:06:38;;;;;;;15.93;7.27;;;;;;;8.51;56.90;101083.25;5026007;28;20228;-78
2021/03/22 11:09:07;;;;;;;10.40;5.80;;;;;;;8.67;57.48;101087.56;5026041;28;20211;-77
2021/03/22 11:11:34;;;;;;;6.10;3.57;;;;;;;8.51;56.48;101091.03;5019593;28;20264;-77
2021/03/22 11:14:05;;;;;;;5.87;3.30;;;;;;;8.39;55.04;101097.06;5025772;28;20272;-78
2021/03/22 11:16:34;;;;;;;6.60;2.60;;;;;;;8.15;53.88;101097.91;5023539;28;20352;-76
2021/03/22 11:19:10;;;;;;;6.63;3.07;;;;;;;8.25;54.54;101104.88;5023426;28;20572;-78
2021/03/22 11:21:37;;;;;;;8.97;3.20;;;;;;;8.21;52.51;101097.06;5020447;28;20213;-75
2021/03/22 11:24:03;;;;;;;5.10;2.80;;;;;;;8.82;54.55;101096.22;5025987;28;20227;-76
2021/03/22 11:26:30;;;;;;;6.07;3.10;;;;;;;9.31;53.42;101098.72;5020247;28;20837;-76
2021/03/22 11:29:19;;;;;;;6.63;2.33;;;;;;;9.50;52.31;101099.53;5025616;28;20270;-78
2021/03/22 11:31:47;;;;;;;7.27;2.67;;;;;;;9.65;51.83;101089.06;5020225;28;20212;-77
2021/03/22 11:34:20;;;;;;;4.40;2.37;;;;;;;9.53;50.07;101081.28;5025857;28;20215;-76
2021/03/22 11:36:46;;;;;;;5.73;2.70;;;;;;;9.70;52.02;101084.66;5019049;28;20250;-76
2021/03/22 11:39:24;;;;;;;6.78;3.22;;;;;;;9.34;53.19;101090.91;5025780;28;21107;-78
2021/03/22 11:42:18;;;;;;;6.13;3.67;;;;;;;8.69;56.85;101101.44;5019038;28;20209;-77
2021/03/22 11:44:46;;;;;;;6.77;3.20;;;;;;;8.85;55.24;101091.03;5000208;28;20254;-77
2021/03/22 11:47:39;;;;;;;3.83;2.63;;;;;;;9.08;56.12;101096.19;5023669;28;20226;-76